sensor_id;sensor_type;location;lat;lon;timestamp;pressure;altitude;pressure_sealevel;temperature;humidity
39823;BME280;25499;53.958;10.970;2023-02-10T09:38:21;103090.28;;;4.67;100.00
39823;BME280;25499;53.958;10.970;2023-02-10T09:45:13;103096.84;;;4.62;100.00
39823;BME280;25499;53.958;10.970;2023-02-10T09:47:50;103090.38;;;4.69;100.00
39823;BME280;25499;53.958;10.970;2023-02-10T09:55:58;103088.94;;;4.89;100.00
39823;BME280;25499;53.958;10.970;2023-02-10T09:58:30;103095.19;;;4.77;100.00
39823;BME280;25499;53.958;10.970;2023-02-10T10:02:00;103094.63;;;4.83;100.00
39823;BME280;25499;53.958;10.970;2023-02-10T10:04:10;103097.75;;;5.07;100.00
39823;BME280;25499;53.958;10.970;2023-02-10T10:06:40;103088.06;;;5.18;100.00
39823;BME280;25499;53.958;10.970;2023-02-10T10:11:51;103091.97;;;5.57;100.00
39823;BME280;25499;53.958;10.970;2023-02-10T10:14:25;103078.25;;;5.58;100.00
39823;BME280;25499;53.958;10.970;2023-02-10T10:17:08;103079.00;;;5.89;100.00
39823;BME280;25499;53.958;10.970;2023-02-10T10:20:03;103078.44;;;6.09;99.17
39823;BME280;25499;53.958;10.970;2023-02-10T10:31:27;103053.25;;;6.40;94.06
39823;BME280;25499;53.958;10.970;2023-02-10T10:36:19;103055.91;;;6.58;92.67
39823;BME280;25499;53.958;10.970;2023-02-10T10:38:51;103056.34;;;6.49;92.13
39823;BME280;25499;53.958;10.970;2023-02-10T10:41:17;103050.94;;;6.28;92.30
39823;BME280;25499;53.958;10.970;2023-02-10T10:43:51;103062.25;;;6.13;92.33
39823;BME280;25499;53.958;10.970;2023-02-10T10:46:30;103067.19;;;6.09;92.92
39823;BME280;25499;53.958;10.970;2023-02-10T10:48:59;103077.53;;;6.42;92.76
39823;BME280;25499;53.958;10.970;2023-02-10T10:51:25;103070.50;;;6.39;92.29
39823;BME280;25499;53.958;10.970;2023-02-10T10:53:54;103070.78;;;6.62;92.07
39823;BME280;25499;53.958;10.970;2023-02-10T10:56:33;103074.84;;;7.09;91.77
39823;BME280;25499;53.958;10.970;2023-02-10T10:59:00;103062.84;;;7.11;91.06
39823;BME280;25499;53.958;10.970;2023-02-10T11:01:33;103064.13;;;7.01;90.30
39823;BME280;25499;53.958;10.970;2023-02-10T11:04:14;103054.13;;;7.27;90.17
39823;BME280;25499;53.958;10.970;2023-02-10T11:06:43;103048.59;;;7.01;89.63
39823;BME280;25499;53.958;10.970;2023-02-10T11:09:29;103049.97;;;6.95;89.47
39823;BME280;25499;53.958;10.970;2023-02-10T11:12:33;103051.25;;;6.68;90.21
39823;BME280;25499;53.958;10.970;2023-02-10T11:15:00;103057.78;;;6.44;90.77
39823;BME280;25499;53.958;10.970;2023-02-10T11:17:34;103065.53;;;6.60;91.43
39823;BME280;25499;53.958;10.970;2023-02-10T11:20:21;103067.97;;;6.57;91.79
39823;BME280;25499;53.958;10.970;2023-02-10T11:22:58;103069.09;;;6.46;92.04
39823;BME280;25499;53.958;10.970;2023-02-10T11:27:54;103060.03;;;6.70;92.84
39823;BME280;25499;53.958;10.970;2023-02-10T11:30:28;103062.47;;;6.51;92.70
39823;BME280;25499;53.958;10.970;2023-02-10T11:32:55;103057.63;;;6.41;92.72
39823;BME280;25499;53.958;10.970;2023-02-10T11:35:22;103051.59;;;6.24;92.99
39823;BME280;25499;53.958;10.970;2023-02-10T11:37:56;103050.28;;;5.99;93.31
39823;BME280;25499;53.958;10.970;2023-02-10T11:40:37;103053.31;;;5.92;94.07
39823;BME280;25499;53.958;10.970;2023-02-10T11:43:14;103055.75;;;5.72;94.35
39823;BME280;25499;53.958;10.970;2023-02-10T11:45:55;103059.53;;;5.63;94.56
39823;BME280;25499;53.958;10.970;2023-02-10T11:48:22;103065.66;;;5.65;95.09
39823;BME280;25499;53.958;10.970;2023-02-10T11:51:33;103055.31;;;5.65;95.53
39823;BME280;25499;53.958;10.970;2023-02-10T11:53:52;103068.09;;;6.09;95.09
39823;BME280;25499;53.958;10.970;2023-02-10T11:56:20;103055.06;;;6.24;94.53
39823;BME280;25499;53.958;10.970;2023-02-10T11:58:56;103057.28;;;6.51;94.00
39823;BME280;25499;53.958;10.970;2023-02-10T12:01:49;103043.56;;;6.52;92.74
39823;BME280;25499;53.958;10.970;2023-02-10T12:10:17;103025.41;;;6.18;92.16
39823;BME280;25499;53.958;10.970;2023-02-10T12:15:29;103020.00;;;5.96;93.38
39823;BME280;25499;53.958;10.970;2023-02-10T12:30:08;103019.34;;;5.84;94.72
39823;BME280;25499;53.958;10.970;2023-02-10T12:32:58;103001.31;;;5.86;94.23
39823;BME280;25499;53.958;10.970;2023-02-10T12:51:39;102987.25;;;5.64;94.47
39823;BME280;25499;53.958;10.970;2023-02-10T12:54:16;102986.81;;;5.56;94.90
39823;BME280;25499;53.958;10.970;2023-02-10T12:56:52;102993.53;;;5.53;94.73
39823;BME280;25499;53.958;10.970;2023-02-10T12:59:23;102989.19;;;5.52;95.23
39823;BME280;25499;53.958;10.970;2023-02-10T13:01:55;102983.09;;;5.51;95.48
39823;BME280;25499;53.958;10.970;2023-02-10T13:04:33;102983.75;;;5.47;95.61
39823;BME280;25499;53.958;10.970;2023-02-10T13:07:05;102978.44;;;5.60;95.85
39823;BME280;25499;53.958;10.970;2023-02-10T13:10:43;102974.22;;;5.46;95.77
39823;BME280;25499;53.958;10.970;2023-02-10T13:12:45;102972.56;;;5.47;95.80
39823;BME280;25499;53.958;10.970;2023-02-10T13:15:17;102976.59;;;5.41;95.80
39823;BME280;25499;53.958;10.970;2023-02-10T13:17:48;102982.53;;;5.40;96.01
39823;BME280;25499;53.958;10.970;2023-02-10T13:28:25;102991.72;;;5.35;96.20
39823;BME280;25499;53.958;10.970;2023-02-10T13:31:18;102990.34;;;5.26;96.34
39823;BME280;25499;53.958;10.970;2023-02-10T13:33:43;102984.28;;;5.25;96.68
39823;BME280;25499;53.958;10.970;2023-02-10T13:36:17;102985.50;;;5.32;96.44
39823;BME280;25499;53.958;10.970;2023-02-10T13:39:01;102990.03;;;5.36;96.41
39823;BME280;25499;53.958;10.970;2023-02-10T13:41:35;102969.97;;;5.47;95.80
39823;BME280;25499;53.958;10.970;2023-02-10T13:49:22;102941.94;;;5.54;94.57
39823;BME280;25499;53.958;10.970;2023-02-10T13:51:49;102926.59;;;5.57;94.10
39823;BME280;25499;53.958;10.970;2023-02-10T13:54:31;102926.59;;;5.57;94.10
39823;BME280;25499;53.958;10.970;2023-02-10T13:56:58;102913.03;;;5.61;93.81
39823;BME280;25499;53.958;10.970;2023-02-10T13:59:39;102902.78;;;5.63;93.07
39823;BME280;25499;53.958;10.970;2023-02-10T14:02:23;102897.59;;;5.63;92.53
39823;BME280;25499;53.958;10.970;2023-02-10T14:04:54;102897.59;;;5.63;92.10
39823;BME280;25499;53.958;10.970;2023-02-10T14:15:40;102877.19;;;5.51;91.96
39823;BME280;25499;53.958;10.970;2023-02-10T14:18:23;102880.75;;;5.53;92.14
39823;BME280;25499;53.958;10.970;2023-02-10T14:21:01;102874.47;;;5.48;92.14
39823;BME280;25499;53.958;10.970;2023-02-10T14:23:31;102878.56;;;5.45;92.39
39823;BME280;25499;53.958;10.970;2023-02-10T14:26:06;102894.31;;;5.49;92.75
39823;BME280;25499;53.958;10.970;2023-02-10T14:28:38;102890.09;;;5.68;92.97
39823;BME280;25499;53.958;10.970;2023-02-10T14:31:27;102871.66;;;5.78;92.24
39823;BME280;25499;53.958;10.970;2023-02-10T14:34:37;102875.97;;;5.77;92.22
39823;BME280;25499;53.958;10.970;2023-02-10T14:37:18;102870.44;;;5.88;91.96
39823;BME280;25499;53.958;10.970;2023-02-10T14:39:58;102862.03;;;5.92;91.89
39823;BME280;25499;53.958;10.970;2023-02-10T14:42:26;102867.13;;;5.90;91.86
39823;BME280;25499;53.958;10.970;2023-02-10T14:44:54;102863.06;;;5.95;92.05
39823;BME280;25499;53.958;10.970;2023-02-10T14:47:30;102858.47;;;5.90;91.35
39823;BME280;25499;53.958;10.970;2023-02-10T14:49:56;102850.13;;;5.77;91.50
39823;BME280;25499;53.958;10.970;2023-02-10T14:54:49;102843.59;;;5.51;92.33
39823;BME280;25499;53.958;10.970;2023-02-10T14:57:16;102836.25;;;5.59;92.29
39823;BME280;25499;53.958;10.970;2023-02-10T14:59:43;102835.13;;;5.54;92.41
39823;BME280;25499;53.958;10.970;2023-02-10T15:02:17;102830.47;;;5.47;92.74
39823;BME280;25499;53.958;10.970;2023-02-10T15:04:45;102837.31;;;5.46;92.77
39823;BME280;25499;53.958;10.970;2023-02-10T15:07:21;102832.72;;;5.40;92.95
39823;BME280;25499;53.958;10.970;2023-02-10T15:09:48;102826.53;;;5.37;93.08
39823;BME280;25499;53.958;10.970;2023-02-10T15:12:16;102829.09;;;5.37;93.08
39823;BME280;25499;53.958;10.970;2023-02-10T15:17:25;102837.97;;;5.42;93.51
39823;BME280;25499;53.958;10.970;2023-02-10T15:20:14;102831.19;;;5.44;93.59
39823;BME280;25499;53.958;10.970;2023-02-10T15:27:54;102816.81;;;5.33;93.22
39823;BME280;25499;53.958;10.970;2023-02-10T15:30:23;102812.47;;;5.32;92.96
39823;BME280;25499;53.958;10.970;2023-02-10T15:32:56;102807.31;;;5.32;92.83
39823;BME280;25499;53.958;10.970;2023-02-10T15:35:23;102815.22;;;5.35;92.45
39823;BME280;25499;53.958;10.970;2023-02-10T15:37:51;102816.81;;;5.33;92.14
39823;BME280;25499;53.958;10.970;2023-02-10T15:40:21;102799.66;;;5.33;92.03
39823;BME280;25499;53.958;10.970;2023-02-10T15:45:47;102799.97;;;5.23;91.65
39823;BME280;25499;53.958;10.970;2023-02-10T15:48:19;102810.28;;;5.39;91.24
39823;BME280;25499;53.958;10.970;2023-02-10T15:50:45;102801.66;;;5.39;90.76
39823;BME280;25499;53.958;10.970;2023-02-10T15:53:13;102791.66;;;5.29;90.90
39823;BME280;25499;53.958;10.970;2023-02-10T15:55:42;102801.28;;;5.31;90.57
39823;BME280;25499;53.958;10.970;2023-02-10T15:58:11;102809.03;;;5.31;90.69
39823;BME280;25499;53.958;10.970;2023-02-10T16:00:38;102808.84;;;5.28;90.31
39823;BME280;25499;53.958;10.970;2023-02-10T16:03:05;102798.69;;;5.31;90.20
39823;BME280;25499;53.958;10.970;2023-02-10T16:05:35;102786.72;;;5.33;89.85
39823;BME280;25499;53.958;10.970;2023-02-10T16:08:21;102788.56;;;5.36;89.54
39823;BME280;25499;53.958;10.970;2023-02-10T16:10:47;102784.31;;;5.36;89.28
39823;BME280;25499;53.958;10.970;2023-02-10T16:13:14;102790.84;;;5.30;89.01
39823;BME280;25499;53.958;10.970;2023-02-10T16:15:40;102788.28;;;5.30;88.93
39823;BME280;25499;53.958;10.970;2023-02-10T16:18:11;102787.28;;;5.28;88.87
39823;BME280;25499;53.958;10.970;2023-02-10T16:20:37;102778.75;;;5.29;88.71
39823;BME280;25499;53.958;10.970;2023-02-10T16:23:02;102774.25;;;5.25;88.57
39823;BME280;25499;53.958;10.970;2023-02-10T16:25:28;102760.66;;;5.29;88.52
39823;BME280;25499;53.958;10.970;2023-02-10T16:27:54;102759.53;;;5.40;88.22
39823;BME280;25499;53.958;10.970;2023-02-10T16:30:23;102753.59;;;5.25;87.83
39823;BME280;25499;53.958;10.970;2023-02-10T16:32:49;102754.97;;;5.18;87.71
39823;BME280;25499;53.958;10.970;2023-02-10T16:35:15;102758.00;;;5.27;87.75
39823;BME280;25499;53.958;10.970;2023-02-10T16:37:41;102765.75;;;5.27;87.60
39823;BME280;25499;53.958;10.970;2023-02-10T16:40:08;102753.66;;;5.26;87.69
39823;BME280;25499;53.958;10.970;2023-02-10T16:42:37;102753.72;;;5.28;87.37
39823;BME280;25499;53.958;10.970;2023-02-10T16:45:02;102754.78;;;5.31;87.20
39823;BME280;25499;53.958;10.970;2023-02-10T16:47:28;102754.38;;;5.23;87.16
39823;BME280;25499;53.958;10.970;2023-02-10T16:49:53;102755.91;;;5.20;87.51
39823;BME280;25499;53.958;10.970;2023-02-10T16:52:18;102766.72;;;5.29;87.18
39823;BME280;25499;53.958;10.970;2023-02-10T16:54:48;102769.88;;;5.23;87.52
39823;BME280;25499;53.958;10.970;2023-02-10T16:57:14;102773.34;;;5.24;87.71
39823;BME280;25499;53.958;10.970;2023-02-10T16:59:39;102775.28;;;5.28;87.37
39823;BME280;25499;53.958;10.970;2023-02-10T17:02:05;102782.13;;;5.28;87.22
39823;BME280;25499;53.958;10.970;2023-02-10T17:04:30;102783.03;;;5.28;87.18
39823;BME280;25499;53.958;10.970;2023-02-10T17:06:56;102779.53;;;5.28;87.28
39823;BME280;25499;53.958;10.970;2023-02-10T17:09:24;102782.78;;;5.23;87.45
39823;BME280;25499;53.958;10.970;2023-02-10T17:11:50;102775.84;;;5.22;87.38
39823;BME280;25499;53.958;10.970;2023-02-10T17:14:16;102780.28;;;5.25;87.65
39823;BME280;25499;53.958;10.970;2023-02-10T17:16:48;102776.00;;;5.26;87.66
39823;BME280;25499;53.958;10.970;2023-02-10T17:19:17;102777.03;;;5.29;87.25
39823;BME280;25499;53.958;10.970;2023-02-10T17:21:43;102766.00;;;5.15;87.37
39823;BME280;25499;53.958;10.970;2023-02-10T17:24:09;102772.22;;;5.19;87.62
39823;BME280;25499;53.958;10.970;2023-02-10T17:26:35;102775.75;;;5.21;87.80
39823;BME280;25499;53.958;10.970;2023-02-10T17:29:01;102780.19;;;5.23;87.39
39823;BME280;25499;53.958;10.970;2023-02-10T17:31:26;102778.66;;;5.27;87.46
39823;BME280;25499;53.958;10.970;2023-02-10T17:33:52;102774.00;;;5.20;87.20
39823;BME280;25499;53.958;10.970;2023-02-10T17:36:22;102780.69;;;5.16;87.26
39823;BME280;25499;53.958;10.970;2023-02-10T17:38:48;102782.63;;;5.20;87.43
39823;BME280;25499;53.958;10.970;2023-02-10T17:41:15;102781.50;;;5.15;87.26
39823;BME280;25499;53.958;10.970;2023-02-10T17:43:40;102780.69;;;5.16;87.65
39823;BME280;25499;53.958;10.970;2023-02-10T17:46:06;102770.28;;;5.15;87.43
39823;BME280;25499;53.958;10.970;2023-02-10T17:48:31;102764.88;;;5.10;87.47
39823;BME280;25499;53.958;10.970;2023-02-10T17:53:30;102753.59;;;5.08;87.33
39823;BME280;25499;53.958;10.970;2023-02-10T17:55:56;102754.63;;;5.12;87.47
39823;BME280;25499;53.958;10.970;2023-02-10T17:58:21;102751.19;;;5.11;87.51
39823;BME280;25499;53.958;10.970;2023-02-10T18:00:47;102737.94;;;5.05;87.44
39823;BME280;25499;53.958;10.970;2023-02-10T18:03:12;102747.63;;;5.09;87.36
39823;BME280;25499;53.958;10.970;2023-02-10T18:05:46;102731.06;;;5.05;87.29
39823;BME280;25499;53.958;10.970;2023-02-10T18:08:13;102730.03;;;5.02;87.59
39823;BME280;25499;53.958;10.970;2023-02-10T18:10:40;102727.78;;;5.08;87.41
39823;BME280;25499;53.958;10.970;2023-02-10T18:13:06;102732.78;;;5.05;87.58
39823;BME280;25499;53.958;10.970;2023-02-10T18:15:32;102722.13;;;4.99;87.56
39823;BME280;25499;53.958;10.970;2023-02-10T18:17:57;102731.97;;;5.06;87.54
39823;BME280;25499;53.958;10.970;2023-02-10T18:20:23;102726.66;;;5.03;87.61
39823;BME280;25499;53.958;10.970;2023-02-10T18:22:49;102714.72;;;4.89;87.56
39823;BME280;25499;53.958;10.970;2023-02-10T18:25:15;102714.09;;;4.93;87.72
39823;BME280;25499;53.958;10.970;2023-02-10T18:27:40;102711.50;;;4.93;87.76
39823;BME280;25499;53.958;10.970;2023-02-10T18:30:07;102719.06;;;4.90;87.60
39823;BME280;25499;53.958;10.970;2023-02-10T18:32:36;102714.09;;;4.93;87.58
39823;BME280;25499;53.958;10.970;2023-02-10T18:35:02;102705.75;;;4.82;87.75
39823;BME280;25499;53.958;10.970;2023-02-10T18:37:27;102710.13;;;4.83;87.79
39823;BME280;25499;53.958;10.970;2023-02-10T18:39:53;102712.78;;;4.84;87.79
39823;BME280;25499;53.958;10.970;2023-02-10T18:42:24;102707.47;;;4.81;87.84
39823;BME280;25499;53.958;10.970;2023-02-10T18:44:50;102704.25;;;4.85;87.84
39823;BME280;25499;53.958;10.970;2023-02-10T18:47:15;102701.34;;;4.79;87.70
39823;BME280;25499;53.958;10.970;2023-02-10T18:49:41;102696.34;;;4.82;88.08
39823;BME280;25499;53.958;10.970;2023-02-10T18:52:06;102693.78;;;4.82;87.98
39823;BME280;25499;53.958;10.970;2023-02-10T18:54:32;102687.69;;;4.82;87.89
39823;BME280;25499;53.958;10.970;2023-02-10T18:56:57;102677.94;;;4.76;88.19
39823;BME280;25499;53.958;10.970;2023-02-10T18:59:23;102681.91;;;4.70;88.25
39823;BME280;25499;53.958;10.970;2023-02-10T19:01:52;102678.03;;;4.78;88.17
39823;BME280;25499;53.958;10.970;2023-02-10T19:04:18;102681.38;;;4.75;88.33
39823;BME280;25499;53.958;10.970;2023-02-10T19:06:44;102672.72;;;4.75;88.31
39823;BME280;25499;53.958;10.970;2023-02-10T19:09:12;102678.78;;;4.75;88.15
39823;BME280;25499;53.958;10.970;2023-02-10T19:11:38;102667.19;;;4.67;88.44
39823;BME280;25499;53.958;10.970;2023-02-10T19:14:03;102676.03;;;4.72;88.32
39823;BME280;25499;53.958;10.970;2023-02-10T19:16:29;102675.28;;;4.75;88.40
39823;BME280;25499;53.958;10.970;2023-02-10T19:18:58;102665.72;;;4.72;88.41
39823;BME280;25499;53.958;10.970;2023-02-10T19:21:24;102665.06;;;4.76;88.52
39823;BME280;25499;53.958;10.970;2023-02-10T19:23:49;102657.03;;;4.70;88.60
39823;BME280;25499;53.958;10.970;2023-02-10T19:26:15;102655.81;;;4.63;88.69
39823;BME280;25499;53.958;10.970;2023-02-10T19:28:40;102654.09;;;4.64;88.71
39823;BME280;25499;53.958;10.970;2023-02-10T19:31:11;102655.31;;;4.71;88.68
39823;BME280;25499;53.958;10.970;2023-02-10T19:33:36;102656.19;;;4.71;88.60
39823;BME280;25499;53.958;10.970;2023-02-10T19:36:02;102654.19;;;4.65;88.80
39823;BME280;25499;53.958;10.970;2023-02-10T19:38:28;102655.22;;;4.69;88.98
39823;BME280;25499;53.958;10.970;2023-02-10T19:43:28;102661.75;;;4.62;88.88
39823;BME280;25499;53.958;10.970;2023-02-10T19:45:54;102654.28;;;4.67;88.95
39823;BME280;25499;53.958;10.970;2023-02-10T19:48:19;102647.91;;;4.60;89.31
39823;BME280;25499;53.958;10.970;2023-02-10T19:50:44;102660.22;;;4.66;89.38
39823;BME280;25499;53.958;10.970;2023-02-10T19:53:10;102651.28;;;4.76;89.27
39823;BME280;25499;53.958;10.970;2023-02-10T19:55:36;102631.13;;;4.69;88.95
39823;BME280;25499;53.958;10.970;2023-02-10T19:58:01;102618.94;;;4.66;88.97
39823;BME280;25499;53.958;10.970;2023-02-10T20:00:27;102624.03;;;4.64;89.27
39823;BME280;25499;53.958;10.970;2023-02-10T20:02:52;102612.84;;;4.64;89.21
39823;BME280;25499;53.958;10.970;2023-02-10T20:05:18;102608.78;;;4.69;89.02
39823;BME280;25499;53.958;10.970;2023-02-10T20:07:43;102598.56;;;4.54;89.02
39823;BME280;25499;53.958;10.970;2023-02-10T20:10:08;102578.97;;;4.58;88.90
39823;BME280;25499;53.958;10.970;2023-02-10T20:12:34;102572.19;;;4.60;89.02
39823;BME280;25499;53.958;10.970;2023-02-10T20:14:59;102562.78;;;4.60;89.26
39823;BME280;25499;53.958;10.970;2023-02-10T20:17:24;102569.63;;;4.60;89.35
39823;BME280;25499;53.958;10.970;2023-02-10T20:19:50;102554.00;;;4.57;89.18
39823;BME280;25499;53.958;10.970;2023-02-10T20:22:15;102557.31;;;4.54;89.12
39823;BME280;25499;53.958;10.970;2023-02-10T20:24:41;102562.78;;;4.60;88.94
39823;BME280;25499;53.958;10.970;2023-02-10T20:27:06;102562.63;;;4.57;89.06
39823;BME280;25499;53.958;10.970;2023-02-10T20:29:31;102557.53;;;4.59;88.93
39823;BME280;25499;53.958;10.970;2023-02-10T20:31:57;102566.75;;;4.54;89.02
39823;BME280;25499;53.958;10.970;2023-02-10T20:34:22;102559.97;;;4.56;88.92
39823;BME280;25499;53.958;10.970;2023-02-10T20:36:48;102560.75;;;4.55;88.95
39823;BME280;25499;53.958;10.970;2023-02-10T20:39:13;102565.13;;;4.56;88.92
39823;BME280;25499;53.958;10.970;2023-02-10T20:41:39;102572.19;;;4.60;88.84
39823;BME280;25499;53.958;10.970;2023-02-10T20:44:04;102568.44;;;4.53;88.86
39823;BME280;25499;53.958;10.970;2023-02-10T20:46:29;102564.88;;;4.51;89.13
39823;BME280;25499;53.958;10.970;2023-02-10T20:48:57;102548.38;;;4.47;89.23
39823;BME280;25499;53.958;10.970;2023-02-10T20:51:22;102567.69;;;4.56;89.25
39823;BME280;25499;53.958;10.970;2023-02-10T20:53:48;102569.06;;;4.49;89.14
39823;BME280;25499;53.958;10.970;2023-02-10T20:56:17;102568.50;;;4.55;89.19
39823;BME280;25499;53.958;10.970;2023-02-10T20:58:43;102555.59;;;4.55;89.02
39823;BME280;25499;53.958;10.970;2023-02-10T21:01:12;102552.72;;;4.48;88.92
39823;BME280;25499;53.958;10.970;2023-02-10T21:03:38;102549.31;;;4.49;88.93
39823;BME280;25499;53.958;10.970;2023-02-10T21:06:16;102552.88;;;4.52;88.87
39823;BME280;25499;53.958;10.970;2023-02-10T21:08:44;102547.81;;;4.53;88.88
39823;BME280;25499;53.958;10.970;2023-02-10T21:11:13;102544.91;;;4.47;88.85
39823;BME280;25499;53.958;10.970;2023-02-10T21:13:39;102544.84;;;4.45;89.16
39823;BME280;25499;53.958;10.970;2023-02-10T21:16:05;102530.97;;;4.43;89.06
39823;BME280;25499;53.958;10.970;2023-02-10T21:18:31;102515.66;;;4.46;89.22
39823;BME280;25499;53.958;10.970;2023-02-10T21:20:58;102515.66;;;4.46;89.16
39823;BME280;25499;53.958;10.970;2023-02-10T21:23:25;102516.53;;;4.47;89.55
